sensor_id;sensor_type;location;lat;lon;timestamp;temperature;humidity
28761;DHT22;15917;50.014;8.352;2022-10-26T00:02:22;13.40;99.90
28761;DHT22;15917;50.014;8.352;2022-10-26T00:04:47;13.40;99.90
28761;DHT22;15917;50.014;8.352;2022-10-26T00:07:13;13.40;99.90
28761;DHT22;15917;50.014;8.352;2022-10-26T00:09:38;13.40;99.90
28761;DHT22;15917;50.014;8.352;2022-10-26T00:12:04;13.50;99.90
28761;DHT22;15917;50.014;8.352;2022-10-26T00:14:30;13.50;99.90
28761;DHT22;15917;50.014;8.352;2022-10-26T00:16:55;13.50;99.90
28761;DHT22;15917;50.014;8.352;2022-10-26T00:19:21;13.50;99.90
28761;DHT22;15917;50.014;8.352;2022-10-26T00:21:47;13.50;99.90
28761;DHT22;15917;50.014;8.352;2022-10-26T00:24:13;13.50;99.90
28761;DHT22;15917;50.014;8.352;2022-10-26T00:26:39;13.50;99.90
28761;DHT22;15917;50.014;8.352;2022-10-26T00:29:05;13.50;99.90
28761;DHT22;15917;50.014;8.352;2022-10-26T00:31:31;13.60;99.90
28761;DHT22;15917;50.014;8.352;2022-10-26T00:33:57;13.60;99.90
28761;DHT22;15917;50.014;8.352;2022-10-26T00:36:23;13.60;99.90
28761;DHT22;15917;50.014;8.352;2022-10-26T00:38:54;13.60;99.90
28761;DHT22;15917;50.014;8.352;2022-10-26T00:41:27;13.60;99.90
28761;DHT22;15917;50.014;8.352;2022-10-26T00:43:53;13.60;99.90
28761;DHT22;15917;50.014;8.352;2022-10-26T00:46:31;13.60;99.90
28761;DHT22;15917;50.014;8.352;2022-10-26T00:49:01;13.60;99.90
28761;DHT22;15917;50.014;8.352;2022-10-26T00:51:38;13.60;99.90
28761;DHT22;15917;50.014;8.352;2022-10-26T00:54:10;13.60;99.90
28761;DHT22;15917;50.014;8.352;2022-10-26T00:56:37;13.60;99.90
28761;DHT22;15917;50.014;8.352;2022-10-26T00:59:06;13.60;99.90
28761;DHT22;15917;50.014;8.352;2022-10-26T01:01:35;13.60;99.90
28761;DHT22;15917;50.014;8.352;2022-10-26T01:04:02;13.60;99.90
28761;DHT22;15917;50.014;8.352;2022-10-26T01:06:29;13.60;99.90
28761;DHT22;15917;50.014;8.352;2022-10-26T01:08:56;13.60;99.90
28761;DHT22;15917;50.014;8.352;2022-10-26T01:11:22;13.60;99.90
28761;DHT22;15917;50.014;8.352;2022-10-26T01:13:48;13.50;99.90
28761;DHT22;15917;50.014;8.352;2022-10-26T01:16:30;13.60;99.90
28761;DHT22;15917;50.014;8.352;2022-10-26T01:38:04;13.60;99.90
28761;DHT22;15917;50.014;8.352;2022-10-26T01:40:53;13.50;99.90
28761;DHT22;15917;50.014;8.352;2022-10-26T01:43:21;13.50;99.90
28761;DHT22;15917;50.014;8.352;2022-10-26T01:45:49;13.50;99.90
28761;DHT22;15917;50.014;8.352;2022-10-26T01:48:18;13.50;99.90
28761;DHT22;15917;50.014;8.352;2022-10-26T01:50:49;13.50;99.90
28761;DHT22;15917;50.014;8.352;2022-10-26T01:53:15;13.50;99.90
28761;DHT22;15917;50.014;8.352;2022-10-26T01:55:51;13.60;99.90
28761;DHT22;15917;50.014;8.352;2022-10-26T02:01:32;13.60;99.90
28761;DHT22;15917;50.014;8.352;2022-10-26T02:07:02;13.60;99.90
28761;DHT22;15917;50.014;8.352;2022-10-26T02:09:37;13.60;99.90
28761;DHT22;15917;50.014;8.352;2022-10-26T02:12:38;13.60;99.90
28761;DHT22;15917;50.014;8.352;2022-10-26T02:15:16;13.70;99.90
28761;DHT22;15917;50.014;8.352;2022-10-26T02:17:59;13.60;99.90
28761;DHT22;15917;50.014;8.352;2022-10-26T02:20:39;13.60;99.90
28761;DHT22;15917;50.014;8.352;2022-10-26T02:23:07;13.60;99.90
28761;DHT22;15917;50.014;8.352;2022-10-26T02:25:36;13.60;99.90
28761;DHT22;15917;50.014;8.352;2022-10-26T02:28:06;13.60;99.90
28761;DHT22;15917;50.014;8.352;2022-10-26T02:30:35;13.60;99.90
28761;DHT22;15917;50.014;8.352;2022-10-26T02:33:03;13.60;99.90
28761;DHT22;15917;50.014;8.352;2022-10-26T02:35:31;13.60;99.90
28761;DHT22;15917;50.014;8.352;2022-10-26T02:37:58;13.60;99.90
28761;DHT22;15917;50.014;8.352;2022-10-26T02:40:27;13.60;99.90
28761;DHT22;15917;50.014;8.352;2022-10-26T02:42:55;13.60;99.90
28761;DHT22;15917;50.014;8.352;2022-10-26T02:45:26;13.60;99.90
28761;DHT22;15917;50.014;8.352;2022-10-26T02:47:53;13.60;99.90
28761;DHT22;15917;50.014;8.352;2022-10-26T02:50:25;13.60;99.90
28761;DHT22;15917;50.014;8.352;2022-10-26T02:53:09;13.60;99.90
28761;DHT22;15917;50.014;8.352;2022-10-26T02:55:41;13.60;99.90
28761;DHT22;15917;50.014;8.352;2022-10-26T02:58:14;13.60;99.90
28761;DHT22;15917;50.014;8.352;2022-10-26T03:00:42;13.60;99.90
28761;DHT22;15917;50.014;8.352;2022-10-26T03:03:09;13.60;99.90
28761;DHT22;15917;50.014;8.352;2022-10-26T03:05:34;13.60;99.90
28761;DHT22;15917;50.014;8.352;2022-10-26T03:08:01;13.60;99.90
28761;DHT22;15917;50.014;8.352;2022-10-26T03:10:27;13.60;99.90
28761;DHT22;15917;50.014;8.352;2022-10-26T03:12:53;13.60;99.90
28761;DHT22;15917;50.014;8.352;2022-10-26T03:15:19;13.60;99.90
28761;DHT22;15917;50.014;8.352;2022-10-26T03:17:45;13.50;99.90
28761;DHT22;15917;50.014;8.352;2022-10-26T03:20:11;13.50;99.90
28761;DHT22;15917;50.014;8.352;2022-10-26T03:22:37;13.60;99.90
28761;DHT22;15917;50.014;8.352;2022-10-26T03:25:03;13.50;99.90
28761;DHT22;15917;50.014;8.352;2022-10-26T03:27:28;13.50;99.90
28761;DHT22;15917;50.014;8.352;2022-10-26T03:29:54;13.50;99.90
28761;DHT22;15917;50.014;8.352;2022-10-26T03:32:19;13.50;99.90
28761;DHT22;15917;50.014;8.352;2022-10-26T03:34:45;13.50;99.90
28761;DHT22;15917;50.014;8.352;2022-10-26T03:37:12;13.50;99.90
28761;DHT22;15917;50.014;8.352;2022-10-26T03:39:38;13.50;99.90
28761;DHT22;15917;50.014;8.352;2022-10-26T03:42:03;13.50;99.90
28761;DHT22;15917;50.014;8.352;2022-10-26T03:44:29;13.50;99.90
28761;DHT22;15917;50.014;8.352;2022-10-26T03:46:55;13.40;99.90
28761;DHT22;15917;50.014;8.352;2022-10-26T03:49:21;13.40;99.90
28761;DHT22;15917;50.014;8.352;2022-10-26T03:51:46;13.40;99.90
28761;DHT22;15917;50.014;8.352;2022-10-26T03:54:12;13.40;99.90
28761;DHT22;15917;50.014;8.352;2022-10-26T03:56:37;13.40;99.90
28761;DHT22;15917;50.014;8.352;2022-10-26T03:59:03;13.40;99.90
28761;DHT22;15917;50.014;8.352;2022-10-26T04:01:29;13.40;99.90
28761;DHT22;15917;50.014;8.352;2022-10-26T04:03:54;13.40;99.90
28761;DHT22;15917;50.014;8.352;2022-10-26T04:06:20;13.40;99.90
28761;DHT22;15917;50.014;8.352;2022-10-26T04:08:45;13.40;99.90
28761;DHT22;15917;50.014;8.352;2022-10-26T04:11:11;13.40;99.90
28761;DHT22;15917;50.014;8.352;2022-10-26T04:13:36;13.40;99.90
28761;DHT22;15917;50.014;8.352;2022-10-26T04:16:02;13.40;99.90
28761;DHT22;15917;50.014;8.352;2022-10-26T04:18:28;13.40;99.90
28761;DHT22;15917;50.014;8.352;2022-10-26T04:20:53;13.40;99.90
28761;DHT22;15917;50.014;8.352;2022-10-26T04:23:19;13.40;99.90
28761;DHT22;15917;50.014;8.352;2022-10-26T04:25:45;13.50;99.90
28761;DHT22;15917;50.014;8.352;2022-10-26T04:28:12;13.50;99.90
28761;DHT22;15917;50.014;8.352;2022-10-26T04:30:38;13.50;99.90
28761;DHT22;15917;50.014;8.352;2022-10-26T04:33:05;13.40;99.90
28761;DHT22;15917;50.014;8.352;2022-10-26T04:35:31;13.40;99.90
28761;DHT22;15917;50.014;8.352;2022-10-26T04:38:03;13.40;99.90
28761;DHT22;15917;50.014;8.352;2022-10-26T04:40:31;13.40;99.90
28761;DHT22;15917;50.014;8.352;2022-10-26T04:42:57;13.40;99.90
28761;DHT22;15917;50.014;8.352;2022-10-26T04:45:22;13.40;99.90
28761;DHT22;15917;50.014;8.352;2022-10-26T04:48:03;13.40;99.90
28761;DHT22;15917;50.014;8.352;2022-10-26T04:50:29;13.40;99.90
28761;DHT22;15917;50.014;8.352;2022-10-26T04:52:55;13.40;99.90
28761;DHT22;15917;50.014;8.352;2022-10-26T04:55:21;13.40;99.90
28761;DHT22;15917;50.014;8.352;2022-10-26T04:57:46;13.40;99.90
28761;DHT22;15917;50.014;8.352;2022-10-26T05:00:12;13.40;99.90
28761;DHT22;15917;50.014;8.352;2022-10-26T05:02:38;13.40;99.90
28761;DHT22;15917;50.014;8.352;2022-10-26T05:05:03;13.40;99.90
28761;DHT22;15917;50.014;8.352;2022-10-26T05:07:29;13.30;99.90
28761;DHT22;15917;50.014;8.352;2022-10-26T05:09:55;13.40;99.90
28761;DHT22;15917;50.014;8.352;2022-10-26T05:12:20;13.30;99.90
28761;DHT22;15917;50.014;8.352;2022-10-26T05:14:46;13.30;99.90
28761;DHT22;15917;50.014;8.352;2022-10-26T05:17:11;13.40;99.90
28761;DHT22;15917;50.014;8.352;2022-10-26T05:19:37;13.30;99.90
28761;DHT22;15917;50.014;8.352;2022-10-26T05:22:03;13.30;99.90
28761;DHT22;15917;50.014;8.352;2022-10-26T05:24:28;13.30;99.90
28761;DHT22;15917;50.014;8.352;2022-10-26T05:26:54;13.30;99.90
28761;DHT22;15917;50.014;8.352;2022-10-26T05:29:20;13.30;99.90
28761;DHT22;15917;50.014;8.352;2022-10-26T05:31:45;13.30;99.90
28761;DHT22;15917;50.014;8.352;2022-10-26T05:34:11;13.20;99.90
28761;DHT22;15917;50.014;8.352;2022-10-26T05:36:36;13.30;99.90
28761;DHT22;15917;50.014;8.352;2022-10-26T05:39:02;13.20;99.90
28761;DHT22;15917;50.014;8.352;2022-10-26T05:41:27;13.30;99.90
28761;DHT22;15917;50.014;8.352;2022-10-26T05:43:53;13.30;99.90
28761;DHT22;15917;50.014;8.352;2022-10-26T05:46:19;13.30;99.90
28761;DHT22;15917;50.014;8.352;2022-10-26T05:48:44;13.20;99.90
28761;DHT22;15917;50.014;8.352;2022-10-26T05:51:10;13.30;99.90
28761;DHT22;15917;50.014;8.352;2022-10-26T05:53:37;13.20;99.90
28761;DHT22;15917;50.014;8.352;2022-10-26T05:56:09;13.20;99.90
28761;DHT22;15917;50.014;8.352;2022-10-26T05:58:38;13.20;99.90
28761;DHT22;15917;50.014;8.352;2022-10-26T06:01:11;13.20;99.90
28761;DHT22;15917;50.014;8.352;2022-10-26T06:06:23;13.10;99.90
28761;DHT22;15917;50.014;8.352;2022-10-26T06:08:50;13.10;99.90
28761;DHT22;15917;50.014;8.352;2022-10-26T06:11:16;13.20;99.90
28761;DHT22;15917;50.014;8.352;2022-10-26T06:13:42;13.20;99.90
28761;DHT22;15917;50.014;8.352;2022-10-26T06:16:28;13.20;99.90
28761;DHT22;15917;50.014;8.352;2022-10-26T06:19:05;13.30;99.90
28761;DHT22;15917;50.014;8.352;2022-10-26T06:27:11;13.40;99.90
28761;DHT22;15917;50.014;8.352;2022-10-26T06:29:51;13.40;99.90
28761;DHT22;15917;50.014;8.352;2022-10-26T06:32:21;13.40;99.90
28761;DHT22;15917;50.014;8.352;2022-10-26T06:34:49;13.30;99.90
28761;DHT22;15917;50.014;8.352;2022-10-26T06:37:17;13.30;99.90
28761;DHT22;15917;50.014;8.352;2022-10-26T06:39:45;13.30;99.90
28761;DHT22;15917;50.014;8.352;2022-10-26T06:42:11;13.30;99.90
28761;DHT22;15917;50.014;8.352;2022-10-26T06:44:38;13.30;99.90
28761;DHT22;15917;50.014;8.352;2022-10-26T06:47:06;13.30;99.90
28761;DHT22;15917;50.014;8.352;2022-10-26T06:49:36;13.30;99.90
28761;DHT22;15917;50.014;8.352;2022-10-26T06:52:14;13.30;99.90
28761;DHT22;15917;50.014;8.352;2022-10-26T06:54:49;13.30;99.90
28761;DHT22;15917;50.014;8.352;2022-10-26T06:57:23;13.30;99.90
28761;DHT22;15917;50.014;8.352;2022-10-26T06:59:56;13.40;99.90
28761;DHT22;15917;50.014;8.352;2022-10-26T07:02:24;13.40;99.90
28761;DHT22;15917;50.014;8.352;2022-10-26T07:04:50;13.40;99.90
28761;DHT22;15917;50.014;8.352;2022-10-26T07:07:26;13.40;99.90
28761;DHT22;15917;50.014;8.352;2022-10-26T07:09:53;13.40;99.90
28761;DHT22;15917;50.014;8.352;2022-10-26T07:12:18;13.50;99.90
28761;DHT22;15917;50.014;8.352;2022-10-26T07:14:44;13.50;99.90
28761;DHT22;15917;50.014;8.352;2022-10-26T07:17:11;13.60;99.90
28761;DHT22;15917;50.014;8.352;2022-10-26T07:19:36;13.70;99.90
28761;DHT22;15917;50.014;8.352;2022-10-26T07:22:02;13.70;99.90
28761;DHT22;15917;50.014;8.352;2022-10-26T07:24:28;13.80;99.90
28761;DHT22;15917;50.014;8.352;2022-10-26T07:26:55;13.80;99.90
28761;DHT22;15917;50.014;8.352;2022-10-26T07:29:22;13.80;99.90
28761;DHT22;15917;50.014;8.352;2022-10-26T07:31:47;13.90;99.90
28761;DHT22;15917;50.014;8.352;2022-10-26T07:34:13;13.90;99.90
28761;DHT22;15917;50.014;8.352;2022-10-26T07:36:39;13.90;99.90
28761;DHT22;15917;50.014;8.352;2022-10-26T07:39:05;13.80;99.90
28761;DHT22;15917;50.014;8.352;2022-10-26T07:41:31;13.80;99.90
28761;DHT22;15917;50.014;8.352;2022-10-26T07:43:57;13.80;99.90
28761;DHT22;15917;50.014;8.352;2022-10-26T07:46:23;13.60;99.90
28761;DHT22;15917;50.014;8.352;2022-10-26T07:48:48;13.80;99.90
28761;DHT22;15917;50.014;8.352;2022-10-26T07:51:14;13.90;99.90
28761;DHT22;15917;50.014;8.352;2022-10-26T07:53:40;14.00;99.90
28761;DHT22;15917;50.014;8.352;2022-10-26T07:56:06;13.90;99.90
28761;DHT22;15917;50.014;8.352;2022-10-26T07:58:32;14.00;99.90
28761;DHT22;15917;50.014;8.352;2022-10-26T08:01:07;13.90;99.90
28761;DHT22;15917;50.014;8.352;2022-10-26T08:03:33;13.90;99.90
28761;DHT22;15917;50.014;8.352;2022-10-26T08:05:59;14.00;99.90
28761;DHT22;15917;50.014;8.352;2022-10-26T08:08:25;14.00;99.90
28761;DHT22;15917;50.014;8.352;2022-10-26T08:10:51;14.00;99.90
28761;DHT22;15917;50.014;8.352;2022-10-26T08:13:17;14.00;99.90
28761;DHT22;15917;50.014;8.352;2022-10-26T08:15:44;14.00;99.90
28761;DHT22;15917;50.014;8.352;2022-10-26T08:18:09;14.10;99.90
28761;DHT22;15917;50.014;8.352;2022-10-26T08:20:35;14.00;99.90
28761;DHT22;15917;50.014;8.352;2022-10-26T08:23:01;14.00;99.90
28761;DHT22;15917;50.014;8.352;2022-10-26T08:25:31;14.00;99.90
28761;DHT22;15917;50.014;8.352;2022-10-26T08:28:00;14.10;99.90
28761;DHT22;15917;50.014;8.352;2022-10-26T08:30:26;14.10;99.90
28761;DHT22;15917;50.014;8.352;2022-10-26T08:32:59;14.10;99.90
28761;DHT22;15917;50.014;8.352;2022-10-26T08:35:25;14.10;99.90
28761;DHT22;15917;50.014;8.352;2022-10-26T08:37:51;14.10;99.90
28761;DHT22;15917;50.014;8.352;2022-10-26T08:40:19;14.10;99.90
28761;DHT22;15917;50.014;8.352;2022-10-26T08:42:50;14.10;99.90
28761;DHT22;15917;50.014;8.352;2022-10-26T08:45:25;14.10;99.90
28761;DHT22;15917;50.014;8.352;2022-10-26T08:47:57;14.20;99.90
28761;DHT22;15917;50.014;8.352;2022-10-26T08:50:35;14.30;99.90
28761;DHT22;15917;50.014;8.352;2022-10-26T08:53:36;14.40;99.90
28761;DHT22;15917;50.014;8.352;2022-10-26T08:56:16;14.60;99.90
28761;DHT22;15917;50.014;8.352;2022-10-26T08:58:47;14.70;99.90
28761;DHT22;15917;50.014;8.352;2022-10-26T09:01:16;14.80;99.90
28761;DHT22;15917;50.014;8.352;2022-10-26T09:03:42;14.90;99.90
28761;DHT22;15917;50.014;8.352;2022-10-26T09:06:34;15.10;99.90
28761;DHT22;15917;50.014;8.352;2022-10-26T09:09:15;15.30;99.90
28761;DHT22;15917;50.014;8.352;2022-10-26T09:17:20;15.80;99.90
28761;DHT22;15917;50.014;8.352;2022-10-26T09:20:18;16.00;99.90
28761;DHT22;15917;50.014;8.352;2022-10-26T09:23:00;16.30;99.90
28761;DHT22;15917;50.014;8.352;2022-10-26T09:28:00;16.60;99.90
28761;DHT22;15917;50.014;8.352;2022-10-26T09:30:25;16.50;99.90
28761;DHT22;15917;50.014;8.352;2022-10-26T09:35:26;16.60;99.90
28761;DHT22;15917;50.014;8.352;2022-10-26T09:38:02;17.00;99.90
28761;DHT22;15917;50.014;8.352;2022-10-26T09:40:39;17.60;99.90
28761;DHT22;15917;50.014;8.352;2022-10-26T09:43:13;18.00;99.90
28761;DHT22;15917;50.014;8.352;2022-10-26T09:45:45;18.30;99.90
28761;DHT22;15917;50.014;8.352;2022-10-26T09:48:19;18.60;99.90
28761;DHT22;15917;50.014;8.352;2022-10-26T09:50:48;19.10;99.90
28761;DHT22;15917;50.014;8.352;2022-10-26T09:53:14;19.20;99.90
28761;DHT22;15917;50.014;8.352;2022-10-26T09:55:42;18.80;99.90
28761;DHT22;15917;50.014;8.352;2022-10-26T09:58:16;18.50;99.90
28761;DHT22;15917;50.014;8.352;2022-10-26T10:00:45;18.60;99.90
28761;DHT22;15917;50.014;8.352;2022-10-26T10:03:25;19.10;99.90
28761;DHT22;15917;50.014;8.352;2022-10-26T10:05:51;19.40;99.90
28761;DHT22;15917;50.014;8.352;2022-10-26T10:08:21;19.60;99.90
28761;DHT22;15917;50.014;8.352;2022-10-26T10:11:02;19.80;99.90
28761;DHT22;15917;50.014;8.352;2022-10-26T10:13:35;20.10;99.90
28761;DHT22;15917;50.014;8.352;2022-10-26T10:18:29;20.00;99.90
28761;DHT22;15917;50.014;8.352;2022-10-26T10:20:56;19.80;99.90
28761;DHT22;15917;50.014;8.352;2022-10-26T10:23:32;20.00;99.90
28761;DHT22;15917;50.014;8.352;2022-10-26T10:28:29;20.70;99.90
28761;DHT22;15917;50.014;8.352;2022-10-26T10:30:58;21.00;99.90
28761;DHT22;15917;50.014;8.352;2022-10-26T10:33:39;21.10;99.90
28761;DHT22;15917;50.014;8.352;2022-10-26T10:36:15;21.30;99.90
28761;DHT22;15917;50.014;8.352;2022-10-26T10:38:44;21.40;99.90
28761;DHT22;15917;50.014;8.352;2022-10-26T10:41:31;21.50;99.90
28761;DHT22;15917;50.014;8.352;2022-10-26T10:44:23;21.70;99.90
28761;DHT22;15917;50.014;8.352;2022-10-26T10:46:50;21.70;99.90
28761;DHT22;15917;50.014;8.352;2022-10-26T10:49:25;21.80;99.90
28761;DHT22;15917;50.014;8.352;2022-10-26T10:51:52;21.60;99.90
28761;DHT22;15917;50.014;8.352;2022-10-26T10:54:29;21.30;99.90
28761;DHT22;15917;50.014;8.352;2022-10-26T10:57:14;20.90;99.90
28761;DHT22;15917;50.014;8.352;2022-10-26T11:00:07;20.70;99.90
28761;DHT22;15917;50.014;8.352;2022-10-26T11:08:25;20.10;99.90
28761;DHT22;15917;50.014;8.352;2022-10-26T11:10:59;19.80;99.90
28761;DHT22;15917;50.014;8.352;2022-10-26T11:13:47;19.50;99.90
28761;DHT22;15917;50.014;8.352;2022-10-26T11:16:28;19.30;99.90
28761;DHT22;15917;50.014;8.352;2022-10-26T11:21:29;19.10;99.90
28761;DHT22;15917;50.014;8.352;2022-10-26T11:27:04;19.00;99.90
28761;DHT22;15917;50.014;8.352;2022-10-26T11:30:00;18.90;99.90
28761;DHT22;15917;50.014;8.352;2022-10-26T11:32:49;18.80;99.90
28761;DHT22;15917;50.014;8.352;2022-10-26T11:41:39;18.70;99.90
28761;DHT22;15917;50.014;8.352;2022-10-26T11:43:49;18.60;99.90
28761;DHT22;15917;50.014;8.352;2022-10-26T11:46:31;18.70;99.90
28761;DHT22;15917;50.014;8.352;2022-10-26T11:52:18;18.80;99.90
28761;DHT22;15917;50.014;8.352;2022-10-26T11:54:55;18.90;99.90
28761;DHT22;15917;50.014;8.352;2022-10-26T11:57:22;18.90;99.90
28761;DHT22;15917;50.014;8.352;2022-10-26T11:59:56;18.90;99.90
28761;DHT22;15917;50.014;8.352;2022-10-26T12:02:24;18.90;99.90
28761;DHT22;15917;50.014;8.352;2022-10-26T12:04:58;18.90;99.90
28761;DHT22;15917;50.014;8.352;2022-10-26T12:07:32;18.90;99.90
28761;DHT22;15917;50.014;8.352;2022-10-26T12:09:59;19.00;99.90
28761;DHT22;15917;50.014;8.352;2022-10-26T12:12:44;19.00;99.90
28761;DHT22;15917;50.014;8.352;2022-10-26T12:23:15;19.20;99.90
28761;DHT22;15917;50.014;8.352;2022-10-26T12:25:40;19.20;99.90
28761;DHT22;15917;50.014;8.352;2022-10-26T12:28:38;19.30;99.90
28761;DHT22;15917;50.014;8.352;2022-10-26T12:34:14;19.30;99.90
28761;DHT22;15917;50.014;8.352;2022-10-26T12:39:38;19.50;99.90
28761;DHT22;15917;50.014;8.352;2022-10-26T12:44:36;19.70;99.90
28761;DHT22;15917;50.014;8.352;2022-10-26T12:47:03;19.70;99.90
28761;DHT22;15917;50.014;8.352;2022-10-26T12:52:45;20.00;99.90
28761;DHT22;15917;50.014;8.352;2022-10-26T12:55:18;20.30;99.90
28761;DHT22;15917;50.014;8.352;2022-10-26T13:00:50;20.70;99.90
28761;DHT22;15917;50.014;8.352;2022-10-26T13:03:31;20.80;99.90
28761;DHT22;15917;50.014;8.352;2022-10-26T13:08:49;20.80;99.90
28761;DHT22;15917;50.014;8.352;2022-10-26T13:11:29;20.80;99.90
28761;DHT22;15917;50.014;8.352;2022-10-26T13:14:04;20.80;99.90
28761;DHT22;15917;50.014;8.352;2022-10-26T13:16:30;20.80;99.90
28761;DHT22;15917;50.014;8.352;2022-10-26T13:18:56;20.60;99.90
28761;DHT22;15917;50.014;8.352;2022-10-26T13:21:24;20.70;99.90
28761;DHT22;15917;50.014;8.352;2022-10-26T13:26:21;20.90;99.90
28761;DHT22;15917;50.014;8.352;2022-10-26T13:28:50;21.00;99.90
28761;DHT22;15917;50.014;8.352;2022-10-26T13:34:04;20.60;99.90
28761;DHT22;15917;50.014;8.352;2022-10-26T13:36:41;20.40;99.90
28761;DHT22;15917;50.014;8.352;2022-10-26T13:39:14;20.30;99.90
28761;DHT22;15917;50.014;8.352;2022-10-26T13:41:43;20.50;99.90
28761;DHT22;15917;50.014;8.352;2022-10-26T13:44:32;20.70;99.90
28761;DHT22;15917;50.014;8.352;2022-10-26T13:47:10;20.80;99.90
28761;DHT22;15917;50.014;8.352;2022-10-26T13:49:42;21.00;99.90
28761;DHT22;15917;50.014;8.352;2022-10-26T13:52:34;21.30;99.90
28761;DHT22;15917;50.014;8.352;2022-10-26T13:55:15;21.70;99.90
28761;DHT22;15917;50.014;8.352;2022-10-26T13:57:57;21.90;99.90
28761;DHT22;15917;50.014;8.352;2022-10-26T14:00:25;22.10;99.90
28761;DHT22;15917;50.014;8.352;2022-10-26T14:02:51;22.00;99.90
28761;DHT22;15917;50.014;8.352;2022-10-26T14:05:17;21.90;99.90
28761;DHT22;15917;50.014;8.352;2022-10-26T14:07:44;22.00;99.90
28761;DHT22;15917;50.014;8.352;2022-10-26T14:10:32;21.90;99.90
28761;DHT22;15917;50.014;8.352;2022-10-26T14:12:59;21.90;99.90
28761;DHT22;15917;50.014;8.352;2022-10-26T14:15:27;22.00;99.90
28761;DHT22;15917;50.014;8.352;2022-10-26T14:17:55;22.10;99.90
28761;DHT22;15917;50.014;8.352;2022-10-26T14:20:23;22.10;99.90
28761;DHT22;15917;50.014;8.352;2022-10-26T14:22:50;22.20;99.90
28761;DHT22;15917;50.014;8.352;2022-10-26T14:25:22;22.20;99.90
28761;DHT22;15917;50.014;8.352;2022-10-26T14:27:49;22.10;99.90
28761;DHT22;15917;50.014;8.352;2022-10-26T14:30:28;22.10;99.90
28761;DHT22;15917;50.014;8.352;2022-10-26T14:32:54;21.90;99.90
28761;DHT22;15917;50.014;8.352;2022-10-26T14:35:31;21.80;99.90
28761;DHT22;15917;50.014;8.352;2022-10-26T14:38:05;21.80;99.90
28761;DHT22;15917;50.014;8.352;2022-10-26T14:40:35;21.70;99.90
28761;DHT22;15917;50.014;8.352;2022-10-26T14:43:02;21.70;99.90
28761;DHT22;15917;50.014;8.352;2022-10-26T14:45:31;21.50;99.90
28761;DHT22;15917;50.014;8.352;2022-10-26T14:47:58;21.40;99.90
28761;DHT22;15917;50.014;8.352;2022-10-26T14:50:25;21.30;99.90
28761;DHT22;15917;50.014;8.352;2022-10-26T14:53:15;21.30;99.90
28761;DHT22;15917;50.014;8.352;2022-10-26T14:55:47;21.20;99.90
28761;DHT22;15917;50.014;8.352;2022-10-26T14:58:28;21.20;99.90
28761;DHT22;15917;50.014;8.352;2022-10-26T15:04:04;21.00;99.90
28761;DHT22;15917;50.014;8.352;2022-10-26T15:09:01;20.90;99.90
28761;DHT22;15917;50.014;8.352;2022-10-26T15:11:30;20.80;99.90
28761;DHT22;15917;50.014;8.352;2022-10-26T15:13:57;20.80;99.90
28761;DHT22;15917;50.014;8.352;2022-10-26T15:16:25;20.70;99.90
28761;DHT22;15917;50.014;8.352;2022-10-26T15:18:58;20.70;99.90
28761;DHT22;15917;50.014;8.352;2022-10-26T15:21:35;20.60;99.90
28761;DHT22;15917;50.014;8.352;2022-10-26T15:24:02;20.60;99.90
28761;DHT22;15917;50.014;8.352;2022-10-26T15:27:03;20.50;99.90
28761;DHT22;15917;50.014;8.352;2022-10-26T15:29:39;20.50;99.90
28761;DHT22;15917;50.014;8.352;2022-10-26T15:32:28;20.40;99.90
28761;DHT22;15917;50.014;8.352;2022-10-26T15:37:40;20.30;99.90
28761;DHT22;15917;50.014;8.352;2022-10-26T15:40:06;20.20;99.90
28761;DHT22;15917;50.014;8.352;2022-10-26T15:42:35;20.20;99.90
28761;DHT22;15917;50.014;8.352;2022-10-26T15:45:03;20.10;99.90
28761;DHT22;15917;50.014;8.352;2022-10-26T15:47:32;20.00;99.90
28761;DHT22;15917;50.014;8.352;2022-10-26T15:49:58;20.10;99.90
28761;DHT22;15917;50.014;8.352;2022-10-26T15:52:25;20.00;99.90
28761;DHT22;15917;50.014;8.352;2022-10-26T15:54:50;20.00;99.90
28761;DHT22;15917;50.014;8.352;2022-10-26T15:57:16;19.90;99.90
28761;DHT22;15917;50.014;8.352;2022-10-26T15:59:42;19.90;99.90
28761;DHT22;15917;50.014;8.352;2022-10-26T16:02:14;19.90;99.90
28761;DHT22;15917;50.014;8.352;2022-10-26T16:04:40;19.90;99.90
28761;DHT22;15917;50.014;8.352;2022-10-26T16:07:12;19.90;99.90
28761;DHT22;15917;50.014;8.352;2022-10-26T16:09:38;19.80;99.90
28761;DHT22;15917;50.014;8.352;2022-10-26T16:12:07;19.70;99.90
28761;DHT22;15917;50.014;8.352;2022-10-26T16:14:32;19.60;99.90
28761;DHT22;15917;50.014;8.352;2022-10-26T16:16:58;19.50;99.90
28761;DHT22;15917;50.014;8.352;2022-10-26T16:19:23;19.40;99.90
28761;DHT22;15917;50.014;8.352;2022-10-26T16:21:52;19.40;99.90
28761;DHT22;15917;50.014;8.352;2022-10-26T16:24:18;19.30;99.90
28761;DHT22;15917;50.014;8.352;2022-10-26T16:26:44;19.20;99.90
28761;DHT22;15917;50.014;8.352;2022-10-26T16:29:09;19.20;99.90
28761;DHT22;15917;50.014;8.352;2022-10-26T16:31:35;19.10;99.90
28761;DHT22;15917;50.014;8.352;2022-10-26T16:34:00;19.10;99.90
28761;DHT22;15917;50.014;8.352;2022-10-26T16:36:26;19.00;99.90
28761;DHT22;15917;50.014;8.352;2022-10-26T16:38:52;19.00;99.90
28761;DHT22;15917;50.014;8.352;2022-10-26T16:41:18;18.90;99.90
28761;DHT22;15917;50.014;8.352;2022-10-26T16:43:44;18.80;99.90
28761;DHT22;15917;50.014;8.352;2022-10-26T16:46:12;18.80;99.90
28761;DHT22;15917;50.014;8.352;2022-10-26T16:48:39;18.70;99.90
28761;DHT22;15917;50.014;8.352;2022-10-26T16:51:06;18.70;99.90
28761;DHT22;15917;50.014;8.352;2022-10-26T16:53:32;18.60;99.90
28761;DHT22;15917;50.014;8.352;2022-10-26T16:56:05;18.60;99.90
28761;DHT22;15917;50.014;8.352;2022-10-26T16:58:31;18.50;99.90
28761;DHT22;15917;50.014;8.352;2022-10-26T17:00:57;18.50;99.90
28761;DHT22;15917;50.014;8.352;2022-10-26T17:03:22;18.40;99.90
28761;DHT22;15917;50.014;8.352;2022-10-26T17:05:57;18.40;99.90
28761;DHT22;15917;50.014;8.352;2022-10-26T17:08:24;18.30;99.90
28761;DHT22;15917;50.014;8.352;2022-10-26T17:10:49;18.30;99.90
28761;DHT22;15917;50.014;8.352;2022-10-26T17:13:15;18.20;99.90
28761;DHT22;15917;50.014;8.352;2022-10-26T17:15:41;18.20;99.90
28761;DHT22;15917;50.014;8.352;2022-10-26T17:18:06;18.20;99.90
28761;DHT22;15917;50.014;8.352;2022-10-26T17:20:34;18.10;99.90
28761;DHT22;15917;50.014;8.352;2022-10-26T17:22:59;18.10;99.90
28761;DHT22;15917;50.014;8.352;2022-10-26T17:25:25;18.00;99.90
28761;DHT22;15917;50.014;8.352;2022-10-26T17:27:50;18.00;99.90
28761;DHT22;15917;50.014;8.352;2022-10-26T17:30:16;18.00;99.90
28761;DHT22;15917;50.014;8.352;2022-10-26T17:32:42;18.00;99.90
28761;DHT22;15917;50.014;8.352;2022-10-26T17:35:07;17.90;99.90
28761;DHT22;15917;50.014;8.352;2022-10-26T17:37:33;17.90;99.90